Carrolls, Washington
Current Conditions -  °F | °C
As of 7:35 AM on Saturday 20 Dec 2014 (Local Time) from KKLS Reporting Station
Overcast Overcast  
Wind Chill: 42°   Ceiling: 1900
Heat Index: 48°   Visibility: 10mi
Dew Point: 43°   Wind: 17mph
Humidity: 82%   Direction: 160°SSE
Pressure: 29.68"   Gusts: 26mph
Location:  46.07°N, 122.86°W
Report Text: KKLS 201535Z 16015G23KT 10SM OVC019 09/06 A2968 RMK AO1
Loading
Personal Weather Stations






























Interactive Weather Map New forecast layout! Learn more

10-Day Weather Forecast

Advertisements
Track Severe Weather on mobile